Terminal Aerodrome Forecast
Issued by NWS

Home | Current Version | Previous Version | Graphics & Text | Print | Product List | Glossary On
Versions: 1 2 3 4 5 6 7 8 9 10 11 12 13 14 15 16 17
131
FTUS43 KGRB 272316 AAB
TAFCWA
TAF AMD
KCWA 272316Z 2723/2818 09003KT P6SM OVC007
     FM280400 VRB03KT 5SM BR BKN006
     FM281000 VRB03KT 2SM BR BKN007
      TEMPO 2810/2813 1/2SM FG VV001
     FM281500 29004KT 5SM BR BKN015=

USA.gov is the U.S. government's official web portal to all federal, state and local government web resources and services.